Time;durP1;ratioP1;P1;durP2;ratioP2;P2;SDS_P1;SDS_P2;PMS_P1;PMS_P2;Temp;Humidity;BMP_temperature;BMP_pressure;BME280_temperature;BME280_humidity;BME280_pressure;Samples;Min_cycle;Max_cycle;Signal;HPM_P1;HPM_P2
2022/04/03 00:01:43;;;;;;;24.27;13.25;;;2.00;99.90;;;;;;5011963;28;20439;-53
2022/04/03 00:04:09;;;;;;;28.65;14.43;;;2.00;99.90;;;;;;5013229;28;20420;-53
2022/04/03 00:06:34;;;;;;;25.27;14.63;;;2.00;99.90;;;;;;5012664;28;20455;-54
2022/04/03 00:09:01;;;;;;;23.10;13.63;;;2.00;99.90;;;;;;4994049;28;20389;-53
2022/04/03 00:11:28;;;;;;;22.30;13.20;;;2.00;99.90;;;;;;5012945;28;20412;-53
2022/04/03 00:13:55;;;;;;;28.30;14.35;;;2.00;99.90;;;;;;5011855;28;20388;-54
2022/04/03 00:16:21;;;;;;;25.70;14.45;;;1.90;99.90;;;;;;5016167;28;20416;-53
2022/04/03 00:18:47;;;;;;;27.50;13.90;;;1.90;99.90;;;;;;5011487;28;20381;-54
2022/04/03 00:21:13;;;;;;;24.83;13.05;;;1.80;99.90;;;;;;5013717;28;20463;-54
2022/04/03 00:23:39;;;;;;;24.77;13.70;;;1.80;99.90;;;;;;5011980;28;20511;-52
2022/04/03 00:26:06;;;;;;;25.67;13.35;;;1.80;99.90;;;;;;5012090;28;20416;-53
2022/04/03 00:28:31;;;;;;;28.35;13.73;;;2.10;99.90;;;;;;5011412;28;20431;-54
2022/04/03 00:30:57;;;;;;;24.93;13.03;;;1.90;99.90;;;;;;5018128;28;20398;-53
2022/04/03 00:33:24;;;;;;;25.27;13.70;;;1.80;99.90;;;;;;5013622;28;20400;-53
2022/04/03 00:35:51;;;;;;;25.42;13.10;;;1.80;99.90;;;;;;4993513;28;20960;-54
2022/04/03 00:38:18;;;;;;;26.67;14.50;;;1.80;99.90;;;;;;4993481;28;20393;-53
2022/04/03 00:40:45;;;;;;;29.13;14.57;;;1.80;99.90;;;;;;5010217;28;20401;-53
2022/04/03 00:43:11;;;;;;;25.60;14.77;;;1.80;99.90;;;;;;4994066;28;20416;-54
2022/04/03 00:45:41;;;;;;;22.42;12.98;;;1.80;99.90;;;;;;5011862;28;20389;-53
2022/04/03 00:48:07;;;;;;;25.88;13.70;;;2.10;99.90;;;;;;5011309;28;20384;-53
2022/04/03 00:50:33;;;;;;;27.80;14.57;;;1.50;99.90;;;;;;5011957;28;20401;-53
2022/04/03 00:52:59;;;;;;;27.27;14.05;;;1.50;99.90;;;;;;5010972;28;20389;-54
2022/04/03 00:55:24;;;;;;;23.30;13.03;;;2.50;99.90;;;;;;5012124;28;20381;-53
2022/04/03 00:57:50;;;;;;;29.60;16.10;;;1.40;99.90;;;;;;5010974;28;20373;-53
2022/04/03 01:00:17;;;;;;;31.48;16.48;;;1.40;99.90;;;;;;5011580;28;20388;-53
2022/04/03 01:02:43;;;;;;;33.80;15.57;;;1.40;99.90;;;;;;4993146;28;20416;-52
2022/04/03 01:05:09;;;;;;;32.90;16.50;;;1.40;99.90;;;;;;5011361;28;20396;-53
2022/04/03 01:07:35;;;;;;;32.95;16.35;;;1.30;99.90;;;;;;5011219;28;20466;-53
2022/04/03 01:10:01;;;;;;;32.03;15.80;;;1.30;99.90;;;;;;5010497;28;20424;-53
2022/04/03 01:12:28;;;;;;;31.67;16.48;;;1.40;99.90;;;;;;5011393;28;20475;-53
2022/04/03 01:14:53;;;;;;;28.15;16.33;;;1.40;99.90;;;;;;5010704;28;20389;-54
2022/04/03 01:17:19;;;;;;;30.80;17.75;;;1.40;99.90;;;;;;5011351;28;20387;-53
2022/04/03 01:19:45;;;;;;;32.07;16.67;;;1.40;99.90;;;;;;5006877;28;20408;-52
2022/04/03 01:22:12;;;;;;;31.40;17.00;;;1.40;99.90;;;;;;5011060;28;20708;-53
2022/04/03 01:24:42;;;;;;;31.95;16.73;;;1.40;99.90;;;;;;5010789;28;20393;-53
2022/04/03 01:27:08;;;;;;;37.13;18.67;;;1.40;99.90;;;;;;5010833;28;20476;-54
2022/04/03 01:29:34;;;;;;;37.55;18.80;;;1.50;99.90;;;;;;5010870;28;20569;-53
2022/04/03 01:31:59;;;;;;;39.78;18.77;;;1.60;99.90;;;;;;5010402;28;20733;-53
2022/04/03 01:34:25;;;;;;;37.47;18.50;;;1.60;99.90;;;;;;5007685;28;20415;-54
2022/04/03 01:36:51;;;;;;;38.03;20.13;;;1.60;99.90;;;;;;5010073;28;20474;-53
2022/04/03 01:39:17;;;;;;;38.03;18.27;;;1.70;99.90;;;;;;5010680;28;20460;-53
2022/04/03 01:41:43;;;;;;;39.75;20.30;;;1.70;99.90;;;;;;5010552;28;20391;-52
2022/04/03 01:44:11;;;;;;;34.72;18.85;;;1.70;99.90;;;;;;5010262;28;20412;-53
2022/04/03 01:46:37;;;;;;;33.60;18.20;;;1.70;99.90;;;;;;5010547;28;20866;-53
2022/04/03 01:49:04;;;;;;;34.85;17.40;;;1.60;99.90;;;;;;5010192;28;20656;-53
2022/04/03 01:51:31;;;;;;;32.07;18.30;;;1.60;99.90;;;;;;5010627;28;20401;-53
2022/04/03 01:53:56;;;;;;;37.67;18.85;;;1.70;99.90;;;;;;5009525;28;20491;-53
2022/04/03 01:56:22;;;;;;;36.13;18.30;;;1.60;99.90;;;;;;5010408;28;20808;-54
2022/04/03 01:58:48;;;;;;;36.20;18.40;;;1.70;99.90;;;;;;5009457;28;20395;-53
2022/04/03 02:01:14;;;;;;;45.65;20.50;;;2.60;99.90;;;;;;5009832;28;20399;-53
2022/04/03 02:03:40;;;;;;;35.38;17.58;;;1.70;99.90;;;;;;5009787;28;20416;-53
2022/04/03 02:06:06;;;;;;;38.67;20.53;;;1.80;99.90;;;;;;4992641;28;20416;-53
2022/04/03 02:08:31;;;;;;;33.70;17.93;;;1.80;99.90;;;;;;5010286;28;20874;-53
2022/04/03 02:10:58;;;;;;;38.27;19.97;;;1.80;99.90;;;;;;5009615;28;20433;-54
2022/04/03 02:13:24;;;;;;;36.60;18.20;;;1.80;99.90;;;;;;5010178;28;20384;-54
2022/04/03 02:15:49;;;;;;;40.65;18.85;;;1.70;99.90;;;;;;5009262;28;20401;-53
2022/04/03 02:18:15;;;;;;;37.13;19.00;;;1.70;99.90;;;;;;5010031;28;20409;-53
2022/04/03 02:20:41;;;;;;;44.50;20.10;;;1.70;99.90;;;;;;4992217;28;20416;-53
2022/04/03 02:23:07;;;;;;;39.10;20.10;;;1.70;99.90;;;;;;5009120;28;20858;-53
2022/04/03 02:25:32;;;;;;;34.58;17.50;;;1.80;99.90;;;;;;5013849;28;20411;-53
2022/04/03 02:27:59;;;;;;;29.75;16.80;;;1.70;99.90;;;;;;5009153;28;20388;-53
2022/04/03 02:30:25;;;;;;;34.35;17.92;;;1.70;99.90;;;;;;5009969;28;20396;-53
2022/04/03 02:32:51;;;;;;;32.20;17.17;;;1.70;99.90;;;;;;5008733;28;21241;-53
2022/04/03 02:35:17;;;;;;;30.83;17.42;;;1.70;99.90;;;;;;4992153;28;20458;-53
2022/04/03 02:37:43;;;;;;;33.50;17.45;;;1.80;99.90;;;;;;5009306;28;20408;-52
2022/04/03 02:40:12;;;;;;;32.78;16.75;;;3.20;99.90;;;;;;4991928;28;20397;-53
2022/04/03 02:42:38;;;;;;;28.07;15.80;;;1.90;99.90;;;;;;5009546;28;20539;-53
2022/04/03 02:45:05;;;;;;;33.17;17.08;;;1.80;99.90;;;;;;5010478;28;20882;-53
2022/04/03 02:47:32;;;;;;;29.95;16.63;;;1.80;99.90;;;;;;5009772;28;20415;-53
2022/04/03 02:49:58;;;;;;;34.05;17.25;;;1.80;99.90;;;;;;5010967;28;20409;-53
2022/04/03 02:52:24;;;;;;;30.33;15.15;;;1.90;99.90;;;;;;5015839;28;20401;-53
2022/04/03 02:54:49;;;;;;;43.20;21.45;;;1.80;99.90;;;;;;5015932;28;20396;-53
2022/04/03 02:57:16;;;;;;;35.33;18.27;;;1.80;99.90;;;;;;5015883;28;20483;-54
2022/04/03 02:59:43;;;;;;;41.90;20.43;;;1.90;99.90;;;;;;5017071;28;20420;-52
2022/04/03 03:02:10;;;;;;;55.70;24.95;;;1.80;99.90;;;;;;5015429;28;20468;-54
2022/04/03 03:04:36;;;;;;;35.65;16.60;;;1.90;99.90;;;;;;5019860;28;20404;-54
2022/04/03 03:07:02;;;;;;;30.08;15.02;;;1.90;99.90;;;;;;5015353;28;20439;-53
2022/04/03 03:09:28;;;;;;;27.40;14.38;;;1.90;99.90;;;;;;5019557;28;20425;-53
2022/04/03 03:11:54;;;;;;;21.00;11.68;;;2.00;99.90;;;;;;5015235;28;20439;-53
2022/04/03 03:14:20;;;;;;;28.67;15.77;;;2.00;99.90;;;;;;5016775;28;20400;-52
2022/04/03 03:16:45;;;;;;;27.23;15.00;;;2.10;99.90;;;;;;5015362;28;20901;-51
2022/04/03 03:19:11;;;;;;;21.27;12.45;;;2.00;99.90;;;;;;5018157;28;20408;-54
2022/04/03 03:21:37;;;;;;;25.80;13.52;;;2.00;99.90;;;;;;5015582;28;20400;-53
2022/04/03 03:24:03;;;;;;;23.40;12.73;;;2.10;99.90;;;;;;5015192;28;20427;-53
2022/04/03 03:26:28;;;;;;;24.27;14.43;;;2.10;99.90;;;;;;5016363;28;20408;-53
2022/04/03 03:28:54;;;;;;;26.40;15.63;;;2.00;99.90;;;;;;5015590;28;20403;-52
2022/04/03 03:31:20;;;;;;;24.20;13.88;;;2.10;99.90;;;;;;5016727;28;20385;-53
2022/04/03 03:33:47;;;;;;;23.83;13.20;;;2.20;99.90;;;;;;5016561;28;20902;-51
2022/04/03 03:36:13;;;;;;;26.63;14.82;;;2.20;99.90;;;;;;5016201;28;20387;-53
2022/04/03 03:38:39;;;;;;;24.73;12.18;;;2.20;99.90;;;;;;5017361;28;20755;-53
2022/04/03 03:41:05;;;;;;;24.10;13.70;;;2.20;99.90;;;;;;5015423;28;20471;-53
2022/04/03 03:43:30;;;;;;;21.92;12.25;;;2.30;99.90;;;;;;5026242;28;20565;-53
2022/04/03 03:45:56;;;;;;;24.90;12.57;;;2.30;99.90;;;;;;5035124;28;20846;-53
2022/04/03 03:48:22;;;;;;;24.95;13.25;;;2.30;99.90;;;;;;5008607;28;20392;-53
2022/04/03 03:50:48;;;;;;;22.15;12.18;;;2.30;99.90;;;;;;5013874;28;20401;-52
2022/04/03 03:53:14;;;;;;;24.23;12.90;;;2.20;99.90;;;;;;5024574;28;20902;-53
2022/04/03 03:55:40;;;;;;;23.23;11.77;;;2.20;99.90;;;;;;5035823;28;20387;-53
2022/04/03 03:58:05;;;;;;;21.17;11.95;;;2.20;99.90;;;;;;5033178;28;20394;-53
2022/04/03 04:00:31;;;;;;;20.40;11.27;;;2.20;99.90;;;;;;5035715;28;20398;-53
2022/04/03 04:02:57;;;;;;;19.25;10.85;;;2.20;99.90;;;;;;5031029;28;20426;-53
2022/04/03 04:05:23;;;;;;;21.50;11.50;;;2.30;99.90;;;;;;5032764;28;20372;-53
2022/04/03 04:07:49;;;;;;;20.08;11.35;;;2.80;99.90;;;;;;5022782;28;20408;-53
2022/04/03 04:10:16;;;;;;;19.63;10.55;;;2.30;99.90;;;;;;5012033;28;20447;-54
2022/04/03 04:12:44;;;;;;;21.00;11.00;;;2.20;99.90;;;;;;4996938;28;20407;-53
2022/04/03 04:15:11;;;;;;;18.30;10.07;;;2.40;99.90;;;;;;5011478;28;20514;-53
2022/04/03 04:17:38;;;;;;;19.40;10.25;;;2.20;99.90;;;;;;5014278;28;20395;-53
2022/04/03 04:20:11;;;;;;;20.73;10.20;;;2.20;99.90;;;;;;5011522;28;20397;-53
2022/04/03 04:22:37;;;;;;;20.53;10.53;;;2.20;99.90;;;;;;5011290;28;20439;-53
2022/04/03 04:25:04;;;;;;;20.70;10.50;;;2.30;99.90;;;;;;5011362;28;20452;-54
2022/04/03 04:27:30;;;;;;;19.08;11.25;;;2.20;99.90;;;;;;5012188;28;20405;-53
2022/04/03 04:29:56;;;;;;;19.60;10.10;;;2.00;99.90;;;;;;5011007;28;20451;-53
2022/04/03 04:32:21;;;;;;;19.27;11.13;;;1.90;99.90;;;;;;5011794;28;20392;-53
2022/04/03 04:34:49;;;;;;;21.10;11.23;;;1.90;99.90;;;;;;4994875;28;20392;-52
2022/04/03 04:37:15;;;;;;;19.95;10.30;;;2.00;99.90;;;;;;5009596;28;20396;-53
2022/04/03 04:39:40;;;;;;;20.20;11.07;;;2.10;99.90;;;;;;5013524;28;20442;-53
2022/04/03 04:42:06;;;;;;;20.83;11.30;;;2.20;99.90;;;;;;5011028;28;20484;-54
2022/04/03 04:44:32;;;;;;;20.75;11.05;;;2.20;99.90;;;;;;5013414;28;20492;-53
2022/04/03 04:46:57;;;;;;;19.80;11.10;;;2.30;99.90;;;;;;5011198;28;20431;-53
2022/04/03 04:49:23;;;;;;;22.77;10.90;;;2.20;99.90;;;;;;5014585;28;20400;-53
2022/04/03 04:51:49;;;;;;;16.80;9.80;;;2.20;99.90;;;;;;5010812;28;20423;-52
2022/04/03 04:54:14;;;;;;;18.75;10.23;;;2.30;99.90;;;;;;5011943;28;20414;-53
2022/04/03 04:56:41;;;;;;;18.23;10.23;;;2.30;99.90;;;;;;5011110;28;20735;-53
2022/04/03 04:59:06;;;;;;;18.88;9.80;;;2.10;99.90;;;;;;5011190;28;20407;-53
2022/04/03 05:01:32;;;;;;;19.35;10.15;;;2.00;99.90;;;;;;5011095;28;20389;-53
2022/04/03 05:03:58;;;;;;;18.30;10.37;;;1.90;99.90;;;;;;5013139;28;20408;-53
2022/04/03 05:06:26;;;;;;;17.03;9.67;;;1.80;99.90;;;;;;5011404;28;20397;-54
2022/04/03 05:08:53;;;;;;;18.23;9.70;;;1.80;99.90;;;;;;5010386;28;20401;-53
2022/04/03 05:11:19;;;;;;;16.83;9.52;;;1.80;99.90;;;;;;5011053;28;20377;-53
2022/04/03 05:13:46;;;;;;;21.33;10.20;;;1.80;99.90;;;;;;5010869;28;20908;-53
2022/04/03 05:16:11;;;;;;;19.23;9.90;;;1.90;99.90;;;;;;5010577;28;20547;-53
2022/04/03 05:18:37;;;;;;;15.85;8.95;;;1.90;99.90;;;;;;4993526;28;20896;-53
2022/04/03 05:21:07;;;;;;;17.50;9.55;;;1.70;99.90;;;;;;5011981;28;20455;-53
2022/04/03 05:23:33;;;;;;;17.25;9.63;;;2.80;99.90;;;;;;5010819;28;20528;-53
2022/04/03 05:25:59;;;;;;;16.65;9.15;;;1.80;99.90;;;;;;5010127;28;20476;-52
2022/04/03 05:28:26;;;;;;;18.58;9.35;;;1.80;99.90;;;;;;4994063;28;20608;-53
2022/04/03 05:30:52;;;;;;;16.60;9.00;;;1.80;99.90;;;;;;5009938;28;20424;-53
2022/04/03 05:33:18;;;;;;;17.50;10.15;;;1.90;99.90;;;;;;5010660;28;20447;-52
2022/04/03 05:35:44;;;;;;;16.33;9.15;;;2.00;99.90;;;;;;5010583;28;20388;-53
2022/04/03 05:38:09;;;;;;;14.80;8.13;;;2.00;99.90;;;;;;5009915;28;20405;-53
2022/04/03 05:40:35;;;;;;;15.53;9.00;;;2.00;99.90;;;;;;5010589;28;20389;-53
2022/04/03 05:43:01;;;;;;;15.47;9.27;;;2.00;99.90;;;;;;5010230;28;20421;-54
2022/04/03 05:45:27;;;;;;;17.00;8.20;;;2.10;99.90;;;;;;5010788;28;20397;-53
2022/04/03 05:47:53;;;;;;;16.10;9.05;;;2.10;99.90;;;;;;5011025;28;20451;-53
2022/04/03 05:50:19;;;;;;;16.07;8.20;;;2.10;99.90;;;;;;5010701;28;20458;-53
2022/04/03 05:52:50;;;;;;;15.38;8.38;;;2.10;99.90;;;;;;4991808;28;20424;-51
2022/04/03 05:55:20;;;;;;;14.20;8.10;;;2.10;99.90;;;;;;5010441;28;20389;-53
2022/04/03 05:57:48;;;;;;;17.40;9.40;;;2.20;99.90;;;;;;5007452;28;20397;-51
2022/04/03 06:00:15;;;;;;;14.02;7.78;;;2.20;99.90;;;;;;5010031;28;20385;-53
2022/04/03 06:02:56;;;;;;;13.95;7.90;;;2.40;99.90;;;;;;5010394;28;20431;-53
2022/04/03 06:05:27;;;;;;;16.08;8.30;;;2.20;99.90;;;;;;5003376;28;20400;-53
2022/04/03 06:07:53;;;;;;;15.55;8.40;;;2.20;99.90;;;;;;5013402;28;20406;-55
2022/04/03 06:10:21;;;;;;;15.05;7.80;;;2.30;99.90;;;;;;5010067;28;20388;-53
2022/04/03 06:13:02;;;;;;;15.23;7.78;;;2.30;99.90;;;;;;5011327;28;20395;-51
2022/04/03 06:15:36;;;;;;;14.68;7.88;;;2.30;99.90;;;;;;5009584;28;20393;-53
2022/04/03 06:18:04;;;;;;;14.05;8.43;;;2.30;99.90;;;;;;5005018;28;20746;-53
2022/04/03 06:20:30;;;;;;;13.48;7.07;;;2.40;99.90;;;;;;4992086;28;20404;-53
2022/04/03 06:22:57;;;;;;;15.23;7.65;;;2.40;99.90;;;;;;5008911;28;20425;-53
2022/04/03 06:25:23;;;;;;;12.90;7.05;;;2.30;99.90;;;;;;4991582;28;20393;-52
2022/04/03 06:27:50;;;;;;;14.48;7.50;;;2.60;99.90;;;;;;5009423;28;20468;-51
2022/04/03 06:30:17;;;;;;;13.35;6.15;;;2.80;99.90;;;;;;5007434;28;21039;-53
2022/04/03 06:32:42;;;;;;;13.70;7.30;;;3.10;99.90;;;;;;5009848;28;20485;-52
2022/04/03 06:35:09;;;;;;;11.60;6.50;;;4.70;99.90;;;;;;5012361;28;20486;-53
2022/04/03 06:37:35;;;;;;;11.70;6.10;;;3.50;99.90;;;;;;5009633;28;20397;-54
2022/04/03 06:40:02;;;;;;;14.10;7.13;;;3.50;99.90;;;;;;5009582;28;20385;-53
2022/04/03 06:42:29;;;;;;;11.40;6.35;;;3.80;99.90;;;;;;5009722;28;20417;-54
2022/04/03 06:44:55;;;;;;;12.55;6.35;;;3.80;99.90;;;;;;5007599;28;20408;-54
2022/04/03 06:47:21;;;;;;;12.07;5.93;;;4.10;99.90;;;;;;5009482;28;20385;-53
2022/04/03 06:49:47;;;;;;;13.25;6.78;;;4.40;99.90;;;;;;5008171;28;20412;-52
2022/04/03 06:52:13;;;;;;;11.25;6.22;;;4.70;99.90;;;;;;5007249;28;20515;-51
2022/04/03 06:54:39;;;;;;;10.43;5.75;;;5.00;99.90;;;;;;5009939;28;20814;-54
2022/04/03 06:57:04;;;;;;;11.87;6.07;;;4.80;99.90;;;;;;5010297;28;20397;-53
2022/04/03 06:59:30;;;;;;;14.23;6.40;;;4.70;99.90;;;;;;5009975;28;20471;-54
2022/04/03 07:01:56;;;;;;;11.90;6.25;;;4.60;99.90;;;;;;5010189;28;20873;-54
2022/04/03 07:04:22;;;;;;;14.30;6.55;;;4.70;99.90;;;;;;5009409;28;20417;-54
2022/04/03 07:06:48;;;;;;;11.75;7.00;;;4.90;99.90;;;;;;5009452;28;20402;-50
2022/04/03 07:09:13;;;;;;;12.27;6.57;;;5.00;99.90;;;;;;5009438;28;20389;-51
2022/04/03 07:11:40;;;;;;;14.20;6.25;;;5.10;99.90;;;;;;5008328;28;20393;-52
2022/04/03 07:14:05;;;;;;;12.35;5.70;;;5.20;99.90;;;;;;5012948;28;20400;-52
2022/04/03 07:16:31;;;;;;;11.35;5.75;;;5.40;99.90;;;;;;5009804;28;20392;-52
2022/04/03 07:18:57;;;;;;;12.23;6.37;;;5.50;99.90;;;;;;5008434;28;20458;-53
2022/04/03 07:21:23;;;;;;;12.32;5.70;;;5.30;99.90;;;;;;5008241;28;20397;-51
2022/04/03 07:23:49;;;;;;;10.43;5.40;;;5.30;99.90;;;;;;4991196;28;20420;-51
2022/04/03 07:26:15;;;;;;;9.77;5.40;;;5.30;99.90;;;;;;5008631;28;21634;-52
2022/04/03 07:28:41;;;;;;;12.32;5.82;;;5.00;99.90;;;;;;4991127;28;20758;-52
2022/04/03 07:31:08;;;;;;;11.43;5.68;;;5.10;99.90;;;;;;5006537;28;20511;-53
2022/04/03 07:33:34;;;;;;;11.27;5.75;;;4.90;99.90;;;;;;5012126;28;20415;-52
2022/04/03 07:36:00;;;;;;;9.85;4.50;;;4.60;99.90;;;;;;5008450;28;20428;-52
2022/04/03 07:38:27;;;;;;;11.43;5.85;;;4.50;99.90;;;;;;5015859;28;20472;-55
2022/04/03 07:40:53;;;;;;;10.77;5.57;;;4.50;99.90;;;;;;5011876;28;20400;-52
2022/04/03 07:43:19;;;;;;;11.63;5.10;;;4.70;99.90;;;;;;5012869;28;20412;-52
2022/04/03 07:45:45;;;;;;;10.82;5.40;;;4.90;99.90;;;;;;5013088;28;20393;-53
2022/04/03 07:48:11;;;;;;;9.20;4.88;;;4.70;99.90;;;;;;4998022;28;20397;-52
2022/04/03 07:50:38;;;;;;;10.82;5.05;;;4.40;99.90;;;;;;5012415;28;20397;-53
2022/04/03 07:53:04;;;;;;;11.40;6.03;;;4.60;99.90;;;;;;5011987;28;20416;-52
2022/04/03 07:55:31;;;;;;;11.50;5.40;;;5.00;99.90;;;;;;5012081;28;20428;-53
2022/04/03 07:57:56;;;;;;;8.98;4.65;;;5.10;99.90;;;;;;5012771;28;20874;-52
2022/04/03 08:00:22;;;;;;;12.80;4.82;;;5.40;99.90;;;;;;5012480;28;20424;-52
2022/04/03 08:02:48;;;;;;;11.50;5.70;;;5.00;99.90;;;;;;5016858;28;20416;-51
2022/04/03 08:05:14;;;;;;;14.37;5.30;;;5.10;99.90;;;;;;5014646;28;20402;-52
2022/04/03 08:07:46;;;;;;;10.13;5.00;;;5.50;99.90;;;;;;4997187;28;20839;-52
2022/04/03 08:10:20;;;;;;;9.90;4.63;;;5.40;99.90;;;;;;5011097;28;20742;-52
2022/04/03 08:12:48;;;;;;;9.77;4.80;;;5.30;99.90;;;;;;4992755;28;20395;-53
2022/04/03 08:15:15;;;;;;;9.80;4.75;;;5.30;99.90;;;;;;5011418;28;20882;-53
2022/04/03 08:17:42;;;;;;;9.43;5.00;;;5.20;99.90;;;;;;5010046;28;20417;-52
2022/04/03 08:20:10;;;;;;;11.70;5.30;;;5.10;99.90;;;;;;5011198;28;20424;-52
2022/04/03 08:22:37;;;;;;;9.55;4.60;;;5.40;99.90;;;;;;5012061;28;20421;-52
2022/04/03 08:25:05;;;;;;;8.70;4.40;;;5.80;99.90;;;;;;4993410;28;20455;-53
2022/04/03 08:27:52;;;;;;;8.30;4.13;;;6.70;99.90;;;;;;5012676;28;20405;-53
2022/04/03 08:30:30;;;;;;;11.40;4.60;;;8.00;99.90;;;;;;5011238;28;20387;-53
2022/04/03 08:32:57;;;;;;;9.10;4.35;;;8.50;99.90;;;;;;5014402;28;20454;-53
2022/04/03 08:35:24;;;;;;;10.60;4.50;;;9.90;99.90;;;;;;5008870;28;20385;-53
2022/04/03 08:37:50;;;;;;;8.82;4.40;;;11.50;97.70;;;;;;5011087;28;20397;-51
2022/04/03 08:40:17;;;;;;;8.75;4.60;;;11.70;99.90;;;;;;5010640;28;20400;-53
2022/04/03 08:42:43;;;;;;;11.13;5.30;;;11.30;99.90;;;;;;5014962;28;20421;-53
2022/04/03 08:45:12;;;;;;;8.05;4.00;;;;;;;;;;4997671;28;20641;-53
2022/04/03 08:47:52;;;;;;;8.57;3.85;;;11.20;99.90;;;;;;5015744;28;20410;-53
2022/04/03 08:50:20;;;;;;;9.82;4.38;;;11.20;1.00;;;;;;5008066;28;20462;-52
2022/04/03 08:52:48;;;;;;;8.75;3.88;;;10.40;99.90;;;;;;5003756;28;20420;-52
2022/04/03 08:55:14;;;;;;;9.20;4.57;;;;;;;;;;5008502;28;21042;-54
2022/04/03 08:57:40;;;;;;;8.02;4.15;;;12.40;99.90;;;;;;5010801;28;20464;-54
2022/04/03 09:00:07;;;;;;;8.40;4.43;;;13.10;33.10;;;;;;5010179;28;20408;-53
2022/04/03 09:02:33;;;;;;;9.68;7.45;;;13.40;1.00;;;;;;5010928;28;20823;-54
2022/04/03 09:04:59;;;;;;;9.83;7.60;;;13.20;99.90;;;;;;5014976;28;20406;-54
2022/04/03 09:07:25;;;;;;;9.40;7.13;;;12.90;99.90;;;;;;5021248;28;20468;-54
2022/04/03 09:09:59;;;;;;;11.63;5.57;;;12.00;99.90;;;;;;5010327;28;20385;-52
2022/04/03 09:12:26;;;;;;;8.90;4.63;;;10.70;99.90;;;;;;4990824;28;20914;-53
2022/04/03 09:14:56;;;;;;;10.97;4.90;;;8.80;99.90;;;;;;5005818;28;20400;-52
2022/04/03 09:17:37;;;;;;;11.50;4.75;;;7.90;99.90;;;;;;5001702;28;20507;-53
2022/04/03 09:20:06;;;;;;;10.00;5.15;;;7.10;99.90;;;;;;4995026;28;20407;-52
2022/04/03 09:22:35;;;;;;;8.95;4.40;;;6.90;99.90;;;;;;5002363;28;20731;-53
2022/04/03 09:25:04;;;;;;;9.88;4.40;;;6.40;99.90;;;;;;5018036;28;20847;-53
2022/04/03 09:27:55;;;;;;;8.00;4.18;;;6.40;99.90;;;;;;4996627;28;20386;-54
2022/04/03 09:30:43;;;;;;;9.60;4.47;;;7.60;99.90;;;;;;4997926;28;20773;-53
2022/04/03 09:33:12;;;;;;;9.82;4.20;;;7.80;99.90;;;;;;5001285;28;21077;-54
2022/04/03 09:36:03;;;;;;;9.88;4.50;;;;;;;;;;5011128;28;20483;-54
2022/04/03 09:38:31;;;;;;;8.95;4.50;;;9.90;99.90;;;;;;5011248;28;20397;-54
2022/04/03 09:40:58;;;;;;;9.93;4.03;;;10.60;99.90;;;;;;5027001;28;20399;-54
2022/04/03 09:43:28;;;;;;;10.60;4.50;;;10.30;99.90;;;;;;5029071;28;20911;-54
2022/04/03 09:45:54;;;;;;;9.27;4.60;;;9.40;99.90;;;;;;5030212;28;20388;-54
2022/04/03 09:48:27;;;;;;;9.53;3.87;;;9.40;99.90;;;;;;5020098;28;20397;-55
2022/04/03 09:50:57;;;;;;;8.48;3.50;;;10.10;99.90;;;;;;5010024;28;20906;-53
2022/04/03 09:53:23;;;;;;;8.75;4.40;;;9.80;99.90;;;;;;5009896;28;20410;-55
2022/04/03 09:55:49;;;;;;;10.30;4.50;;;9.40;99.90;;;;;;5016863;28;20412;-53
2022/04/03 09:58:16;;;;;;;9.13;3.70;;;9.00;99.90;;;;;;5019638;28;20422;-54
2022/04/03 10:00:42;;;;;;;10.60;3.67;;;8.50;99.90;;;;;;5001512;28;20862;-54
2022/04/03 10:03:11;;;;;;;8.90;3.50;;;8.00;99.90;;;;;;5019370;28;20403;-52
2022/04/03 10:05:37;;;;;;;7.82;3.50;;;7.30;99.90;;;;;;5018779;28;20399;-52
2022/04/03 10:08:04;;;;;;;9.15;4.05;;;6.60;99.90;;;;;;4996287;28;20748;-51
2022/04/03 10:10:31;;;;;;;7.95;3.38;;;6.50;99.90;;;;;;5019998;28;20477;-52
2022/04/03 10:12:58;;;;;;;9.23;4.37;;;6.50;99.90;;;;;;5018925;28;20392;-53
2022/04/03 10:15:25;;;;;;;8.77;3.72;;;6.30;99.90;;;;;;5016450;28;20385;-52
2022/04/03 10:17:51;;;;;;;10.45;4.32;;;6.00;99.90;;;;;;5019191;28;20466;-50
2022/04/03 10:20:17;;;;;;;8.98;4.22;;;5.90;99.90;;;;;;5019393;28;20504;-53
2022/04/03 10:22:51;;;;;;;8.35;3.40;;;6.30;99.90;;;;;;5020430;28;20411;-52
2022/04/03 10:25:24;;;;;;;9.48;4.00;;;6.30;99.90;;;;;;5017902;28;20414;-52
2022/04/03 10:27:52;;;;;;;9.10;3.70;;;6.20;99.90;;;;;;5017551;28;20413;-51
2022/04/03 10:30:18;;;;;;;8.05;3.50;;;6.40;99.90;;;;;;5014340;28;20802;-53
2022/04/03 10:32:58;;;;;;;11.50;4.60;;;6.60;99.90;;;;;;5018551;28;20389;-53
2022/04/03 10:35:24;;;;;;;8.70;4.10;;;6.90;99.90;;;;;;5014621;28;20387;-52
2022/04/03 10:38:00;;;;;;;10.30;4.10;;;6.50;99.90;;;;;;5017967;28;20819;-50
2022/04/03 10:40:31;;;;;;;8.32;3.38;;;6.40;99.90;;;;;;5014010;28;20388;-52
2022/04/03 10:43:01;;;;;;;12.55;4.50;;;6.60;99.90;;;;;;5019183;28;20411;-52
2022/04/03 10:45:27;;;;;;;8.40;4.13;;;6.80;99.90;;;;;;5016973;28;20389;-52
2022/04/03 10:48:23;;;;;;;9.00;3.60;;;6.80;99.90;;;;;;5019547;28;20402;-52
2022/04/03 10:50:55;;;;;;;7.95;3.20;;;6.40;99.90;;;;;;5015597;28;20415;-51
2022/04/03 10:53:27;;;;;;;8.80;3.80;;;6.70;99.90;;;;;;5001811;28;20435;-51
2022/04/03 10:55:55;;;;;;;8.00;3.20;;;6.70;99.90;;;;;;5014358;28;20543;-51
2022/04/03 10:58:21;;;;;;;7.75;3.13;;;6.50;99.90;;;;;;5010480;28;20397;-53
2022/04/03 11:00:48;;;;;;;7.80;3.20;;;6.40;99.90;;;;;;5013746;28;20988;-52
2022/04/03 11:03:13;;;;;;;9.93;3.70;;;6.10;99.90;;;;;;5013819;28;20464;-52
2022/04/03 11:05:40;;;;;;;7.00;3.20;;;5.80;99.90;;;;;;5014873;28;20433;-53
2022/04/03 11:08:05;;;;;;;10.97;4.40;;;5.70;99.90;;;;;;5016932;28;20405;-53
2022/04/03 11:10:56;;;;;;;10.30;3.83;;;5.70;99.90;;;;;;5016089;28;20445;-53
2022/04/03 11:13:23;;;;;;;10.35;4.32;;;5.70;99.90;;;;;;5004917;28;20487;-52
2022/04/03 11:15:50;;;;;;;9.10;3.90;;;5.70;99.90;;;;;;5018650;28;20498;-52
2022/04/03 11:18:25;;;;;;;8.50;3.10;;;5.70;99.90;;;;;;5009598;28;20425;-52
2022/04/03 11:21:07;;;;;;;9.45;4.43;;;5.80;99.90;;;;;;5011745;28;20416;-51
2022/04/03 11:23:35;;;;;;;9.50;3.70;;;5.90;99.90;;;;;;5014213;28;20424;-52
2022/04/03 11:26:03;;;;;;;7.55;3.33;;;5.60;99.90;;;;;;5010108;28;20750;-52
2022/04/03 11:28:29;;;;;;;8.48;3.80;;;4.90;99.90;;;;;;4996369;28;20957;-53
2022/04/03 11:30:55;;;;;;;8.10;4.00;;;5.00;99.90;;;;;;5013455;28;20411;-52
2022/04/03 11:33:22;;;;;;;8.68;3.20;;;5.10;99.90;;;;;;5020023;28;20398;-53
2022/04/03 11:35:47;;;;;;;9.13;3.55;;;5.10;99.90;;;;;;5013391;28;20929;-53
2022/04/03 11:38:14;;;;;;;8.50;3.70;;;5.20;99.90;;;;;;5013247;28;20475;-54
2022/04/03 11:40:42;;;;;;;8.73;3.42;;;5.50;99.90;;;;;;5013589;28;20381;-52
2022/04/03 11:43:13;;;;;;;7.93;3.67;;;5.90;99.90;;;;;;5012507;28;20412;-53
2022/04/03 11:45:40;;;;;;;8.52;3.80;;;5.90;99.90;;;;;;5015975;28;20412;-54
2022/04/03 11:48:23;;;;;;;8.70;4.00;;;5.80;99.90;;;;;;5013420;28;20400;-54
2022/04/03 11:50:52;;;;;;;12.73;4.50;;;5.80;99.90;;;;;;5015220;28;20869;-54
2022/04/03 11:53:18;;;;;;;8.43;3.95;;;5.60;99.90;;;;;;5012666;28;20389;-54
2022/04/03 11:55:44;;;;;;;8.50;3.58;;;5.90;99.90;;;;;;5014957;28;20749;-54
2022/04/03 11:58:10;;;;;;;8.10;3.75;;;6.00;99.90;;;;;;5011730;28;20479;-52
2022/04/03 12:00:45;;;;;;;9.17;3.60;;;6.20;99.90;;;;;;5011288;28;20478;-52
2022/04/03 12:03:11;;;;;;;7.93;3.88;;;6.50;99.90;;;;;;5011490;28;20408;-51
2022/04/03 12:05:40;;;;;;;8.93;4.47;;;6.50;99.90;;;;;;5013868;28;20491;-51
2022/04/03 12:08:06;;;;;;;9.88;4.70;;;6.50;99.90;;;;;;5011017;28;20423;-52
2022/04/03 12:10:33;;;;;;;12.48;5.80;;;6.40;99.90;;;;;;5016414;28;20499;-52
2022/04/03 12:12:58;;;;;;;12.68;6.63;;;6.30;99.90;;;;;;5015577;28;20920;-51
2022/04/03 12:15:29;;;;;;;15.73;6.77;;;6.40;99.90;;;;;;5013022;28;20389;-52
2022/04/03 12:17:56;;;;;;;12.18;4.60;;;6.70;99.90;;;;;;5012214;28;20396;-51
2022/04/03 12:20:22;;;;;;;12.07;4.53;;;7.10;99.90;;;;;;5010714;28;20400;-52
2022/04/03 12:22:52;;;;;;;7.80;3.72;;;7.30;99.90;;;;;;5012048;28;20423;-52
2022/04/03 12:25:18;;;;;;;8.60;3.50;;;7.20;99.90;;;;;;5015134;28;20400;-52
2022/04/03 12:27:50;;;;;;;8.50;4.30;;;7.00;99.90;;;;;;5011391;28;20424;-52
2022/04/03 12:30:16;;;;;;;9.52;4.20;;;6.50;99.90;;;;;;5010993;28;20992;-53
2022/04/03 12:32:44;;;;;;;8.95;4.72;;;5.70;99.90;;;;;;5017628;28;20479;-54
2022/04/03 12:35:11;;;;;;;9.68;4.00;;;5.70;99.90;;;;;;5010293;28;20405;-54
2022/04/03 12:37:40;;;;;;;7.72;3.63;;;5.50;99.90;;;;;;5011541;28;20432;-54
2022/04/03 12:40:11;;;;;;;9.32;3.40;;;5.30;99.90;;;;;;5011000;28;20431;-54
2022/04/03 12:42:41;;;;;;;8.38;3.92;;;5.10;99.90;;;;;;5011914;28;20572;-54
2022/04/03 12:45:06;;;;;;;8.00;3.95;;;5.20;99.90;;;;;;5010482;28;20888;-54
2022/04/03 12:47:36;;;;;;;8.03;3.67;;;5.40;99.90;;;;;;5011089;28;20404;-54